Flugplatz Berg/Ravensburg (UL)

Hier findest Du alle Informationen zum Flugplatz Berg/Ravensburg (UL).

Informationen für Piloten zum Flugplatz Berg/Ravensburg

Hier findest Du alle relevanten Informationen, die Du als Pilot benötigst, um Berg/Ravensburg anzufliegen.

Flugplatz: Berg/Ravensburg ICAO-Code: UL Flugplatz
Frequenz Turm: 120.975 Mhz GAFOR Gebiet: 71
Frequenz Ground: 120.975 Mhz Mogas: nein
Platzrunde: W 3000 ft Landegebühr: -
Platzhöhe: Sunrise: 03:27 Uhr UTC
Pisten: 03/21 - 340 m x 20 m, GRAS Sunset: 19:25 Uhr UTC

Mitglieder, die in Berg/Ravensburg fliegen

Flugwetter am Flugplatz Berg/Ravensburg

Die METAR Information stammen aus EDNY (17.93 km entfernt).

METAR Code:
2020/07/02 18:20
EDNY 021820Z AUTO 21010KT 9999 // OVC072/// 20/16 Q1015

Flugschulen am Flugplatz Berg/Ravensburg

Am Flugplatz Berg/Ravensburg gibt es leider keine Flugschule.

Benachbarte Flugplätze und Flugschulen

Es gibt 17 weitere Flugplätze in einem Umkreis von 50 km um den Flugplatz Berg/Ravensburg.

Jetzt anmelden

Passwort vergessen

Umfrage Archiv

Wären Rettungsgeräte keine Pflicht mehr, würdet Ihr Euer UL trotzdem mit einem ausstatten?

Ja
81.1 %
Nein
18.9 %
Stimmen: 185 | Diskussion
Anzeige: Roland Aircraft
Statistik Alle Mitglieder

Aktuell sind 11 Besucher online.

Anzeige: VFR Sprechfunk Simulator


Anzeige: Pocket FMS